Orbital elements of COSMOS 970 DEB
| Launched | 20 December 1977 |
| Flight ended | – |
| Launch site | Tyuratam Missile and Space Center, Kazakhstan (Also known as Baikonur Cosmodrome) |
| Owner | Commonwealth of Independent States (former USSR) |
| NORAD ID | 10565 |
| Date fetched |
Epoch osculation |
Inc. [°] |
Ecc. | RA asc node [hr] |
Arg Peri. [°] |
Mean anom [°] |
Mean motion [rev/day] |
Abs. mag |
| Date fetched |
Epoch osculation |
Inc. [°] |
Ecc. | RA asc node [hr] |
Arg Peri. [°] |
Mean anom [°] |
Mean motion [rev/day] |
Abs. mag |
| 2026 May 03 17:57 | 2026 Apr 30 14:00:13 | 65.8272 | 0.01261 | 11.3390 | 260.9063 | 175.0573 | 13.66066 | – |
| 2026 May 02 17:57 | 2026 Apr 30 14:00:13 | 65.8272 | 0.01261 | 11.3390 | 260.9063 | 175.0573 | 13.66066 | – |
| 2026 May 01 17:56 | 2026 Apr 30 14:00:13 | 65.8272 | 0.01261 | 11.3390 | 260.9063 | 175.0573 | 13.66066 | – |
| 2026 Apr 30 17:56 | 2026 Apr 30 14:00:13 | 65.8272 | 0.01261 | 11.3390 | 260.9063 | 175.0573 | 13.66066 | – |
| 2026 Apr 29 17:57 | 2026 Apr 24 12:19:08 | 65.8280 | 0.01260 | 12.3241 | 263.6087 | 175.0573 | 13.66066 | – |
| 2026 Apr 28 17:56 | 2026 Apr 24 12:19:08 | 65.8280 | 0.01260 | 12.3241 | 263.6087 | 175.0573 | 13.66066 | – |
| 2026 Apr 27 17:58 | 2026 Apr 24 12:19:08 | 65.8280 | 0.01260 | 12.3241 | 263.6087 | 175.0573 | 13.66066 | – |
| 2026 Apr 26 17:58 | 2026 Apr 24 12:19:08 | 65.8280 | 0.01260 | 12.3241 | 263.6087 | 175.0573 | 13.66066 | – |
| 2026 Apr 25 17:58 | 2026 Apr 24 12:19:08 | 65.8280 | 0.01260 | 12.3241 | 263.6087 | 175.0573 | 13.66066 | – |
| 2026 Apr 24 17:59 | 2026 Apr 24 12:19:08 | 65.8280 | 0.01260 | 12.3241 | 263.6087 | 175.0573 | 13.66066 | – |
| 2026 Apr 23 17:57 | 2026 Apr 19 12:22:40 | 65.8283 | 0.01259 | 13.1351 | 265.8387 | 175.0573 | 13.66066 | – |
| 2026 Apr 22 17:57 | 2026 Apr 19 12:22:40 | 65.8283 | 0.01259 | 13.1351 | 265.8387 | 175.0573 | 13.66066 | – |
| 2026 Apr 21 17:57 | 2026 Apr 19 12:22:40 | 65.8283 | 0.01259 | 13.1351 | 265.8387 | 175.0573 | 13.66066 | – |
| 2026 Apr 20 17:57 | 2026 Apr 19 12:22:40 | 65.8283 | 0.01259 | 13.1351 | 265.8387 | 175.0573 | 13.66066 | – |
| 2026 Apr 19 17:58 | 2026 Apr 19 12:22:40 | 65.8283 | 0.01259 | 13.1351 | 265.8387 | 175.0573 | 13.66066 | – |
| 2026 Apr 18 17:56 | 2026 Apr 13 07:06:59 | 65.8283 | 0.01258 | 14.1444 | 268.6221 | 175.0573 | 13.66066 | – |
| 2026 Apr 16 17:57 | 2026 Apr 13 07:06:59 | 65.8283 | 0.01258 | 14.1444 | 268.6221 | 175.0573 | 13.66066 | – |
| 2026 Apr 14 17:57 | 2026 Apr 13 07:06:59 | 65.8283 | 0.01258 | 14.1444 | 268.6221 | 175.0573 | 13.66066 | – |
| 2026 Apr 13 17:57 | 2026 Apr 13 07:06:59 | 65.8283 | 0.01258 | 14.1444 | 268.6221 | 175.0573 | 13.66066 | – |
| 2026 Apr 12 17:57 | 2026 Apr 08 15:01:06 | 65.8281 | 0.01256 | 14.9024 | 270.7222 | 175.0573 | 13.66066 | – |
| 2026 Apr 11 17:57 | 2026 Apr 08 15:01:06 | 65.8281 | 0.01256 | 14.9024 | 270.7222 | 175.0573 | 13.66066 | – |
| 2026 Apr 10 17:58 | 2026 Apr 08 15:01:06 | 65.8281 | 0.01256 | 14.9024 | 270.7222 | 175.0573 | 13.66066 | – |
| 2026 Apr 09 18:01 | 2026 Apr 08 15:01:06 | 65.8281 | 0.01256 | 14.9024 | 270.7222 | 175.0573 | 13.66066 | – |
| 2026 Apr 08 17:57 | 2026 Apr 08 15:01:06 | 65.8281 | 0.01256 | 14.9024 | 270.7222 | 175.0573 | 13.66066 | – |
| 2026 Apr 07 17:57 | 2026 Apr 01 10:28:27 | 65.8274 | 0.01254 | 16.0692 | 273.9763 | 175.0573 | 13.66066 | – |
| 2026 Apr 06 17:57 | 2026 Apr 01 10:28:27 | 65.8274 | 0.01254 | 16.0692 | 273.9763 | 175.0573 | 13.66066 | – |